sensor_id;sensor_type;location;lat;lon;timestamp;P1;durP1;ratioP1;P2;durP2;ratioP2
59310;SDS011;45078;51.654;21.250;2023-03-13T00:01:13;19.27;;;8.10;;
59310;SDS011;45078;51.654;21.250;2023-03-13T00:03:42;19.92;;;6.55;;
59310;SDS011;45078;51.654;21.250;2023-03-13T00:06:07;22.25;;;7.13;;
59310;SDS011;45078;51.654;21.250;2023-03-13T00:08:34;12.43;;;6.38;;
59310;SDS011;45078;51.654;21.250;2023-03-13T00:11:03;14.60;;;7.03;;
59310;SDS011;45078;51.654;21.250;2023-03-13T00:13:36;21.27;;;8.18;;
59310;SDS011;45078;51.654;21.250;2023-03-13T00:16:03;12.63;;;5.90;;
59310;SDS011;45078;51.654;21.250;2023-03-13T00:18:31;13.45;;;5.93;;
59310;SDS011;45078;51.654;21.250;2023-03-13T00:21:00;14.52;;;5.22;;
59310;SDS011;45078;51.654;21.250;2023-03-13T00:23:31;15.90;;;6.35;;
59310;SDS011;45078;51.654;21.250;2023-03-13T00:25:58;11.48;;;4.72;;
59310;SDS011;45078;51.654;21.250;2023-03-13T00:28:26;10.35;;;5.25;;
59310;SDS011;45078;51.654;21.250;2023-03-13T00:31:07;12.90;;;4.68;;
59310;SDS011;45078;51.654;21.250;2023-03-13T00:33:37;11.98;;;5.38;;
59310;SDS011;45078;51.654;21.250;2023-03-13T00:36:05;12.32;;;5.53;;
59310;SDS011;45078;51.654;21.250;2023-03-13T00:38:41;9.40;;;4.63;;
59310;SDS011;45078;51.654;21.250;2023-03-13T00:41:08;10.27;;;4.63;;
59310;SDS011;45078;51.654;21.250;2023-03-13T00:43:36;14.45;;;6.00;;
59310;SDS011;45078;51.654;21.250;2023-03-13T00:46:03;12.88;;;5.60;;
59310;SDS011;45078;51.654;21.250;2023-03-13T00:48:29;11.48;;;4.63;;
59310;SDS011;45078;51.654;21.250;2023-03-13T00:50:55;11.32;;;5.88;;
59310;SDS011;45078;51.654;21.250;2023-03-13T00:53:21;14.18;;;6.13;;
59310;SDS011;45078;51.654;21.250;2023-03-13T00:55:50;17.60;;;6.45;;
59310;SDS011;45078;51.654;21.250;2023-03-13T00:58:18;15.45;;;5.72;;
59310;SDS011;45078;51.654;21.250;2023-03-13T01:00:44;12.38;;;5.97;;
59310;SDS011;45078;51.654;21.250;2023-03-13T01:03:10;19.33;;;6.53;;
59310;SDS011;45078;51.654;21.250;2023-03-13T01:05:36;13.40;;;5.57;;
59310;SDS011;45078;51.654;21.250;2023-03-13T01:08:02;17.10;;;6.18;;
59310;SDS011;45078;51.654;21.250;2023-03-13T01:10:28;19.23;;;6.20;;
59310;SDS011;45078;51.654;21.250;2023-03-13T01:12:53;18.65;;;6.40;;
59310;SDS011;45078;51.654;21.250;2023-03-13T01:15:19;15.60;;;5.53;;
59310;SDS011;45078;51.654;21.250;2023-03-13T01:17:45;16.90;;;5.63;;
59310;SDS011;45078;51.654;21.250;2023-03-13T01:20:11;11.30;;;5.05;;
59310;SDS011;45078;51.654;21.250;2023-03-13T01:22:37;9.63;;;4.30;;
59310;SDS011;45078;51.654;21.250;2023-03-13T01:25:03;9.82;;;5.22;;
59310;SDS011;45078;51.654;21.250;2023-03-13T01:27:29;7.70;;;3.88;;
59310;SDS011;45078;51.654;21.250;2023-03-13T01:29:55;13.55;;;4.97;;
59310;SDS011;45078;51.654;21.250;2023-03-13T01:32:21;13.98;;;5.03;;
59310;SDS011;45078;51.654;21.250;2023-03-13T01:34:47;10.70;;;4.63;;
59310;SDS011;45078;51.654;21.250;2023-03-13T01:37:13;11.90;;;5.40;;
59310;SDS011;45078;51.654;21.250;2023-03-13T01:39:38;10.27;;;5.30;;
59310;SDS011;45078;51.654;21.250;2023-03-13T01:42:04;14.25;;;4.88;;
59310;SDS011;45078;51.654;21.250;2023-03-13T01:44:47;17.65;;;5.68;;
59310;SDS011;45078;51.654;21.250;2023-03-13T01:47:15;14.07;;;5.30;;
59310;SDS011;45078;51.654;21.250;2023-03-13T01:49:41;10.52;;;4.88;;
59310;SDS011;45078;51.654;21.250;2023-03-13T01:55:16;13.27;;;5.13;;
59310;SDS011;45078;51.654;21.250;2023-03-13T01:57:42;9.13;;;4.30;;
59310;SDS011;45078;51.654;21.250;2023-03-13T02:00:17;9.20;;;4.00;;
59310;SDS011;45078;51.654;21.250;2023-03-13T02:02:47;12.10;;;4.40;;
59310;SDS011;45078;51.654;21.250;2023-03-13T02:05:16;9.02;;;5.20;;
59310;SDS011;45078;51.654;21.250;2023-03-13T02:08:01;9.65;;;4.05;;
59310;SDS011;45078;51.654;21.250;2023-03-13T02:10:47;9.45;;;5.13;;
59310;SDS011;45078;51.654;21.250;2023-03-13T02:13:17;8.88;;;4.57;;
59310;SDS011;45078;51.654;21.250;2023-03-13T02:15:45;8.77;;;4.43;;
59310;SDS011;45078;51.654;21.250;2023-03-13T02:18:12;11.82;;;4.25;;
59310;SDS011;45078;51.654;21.250;2023-03-13T02:20:39;11.07;;;4.68;;
59310;SDS011;45078;51.654;21.250;2023-03-13T02:25:51;9.85;;;3.75;;
59310;SDS011;45078;51.654;21.250;2023-03-13T02:28:18;10.32;;;4.07;;
59310;SDS011;45078;51.654;21.250;2023-03-13T02:30:46;12.18;;;4.35;;
59310;SDS011;45078;51.654;21.250;2023-03-13T02:33:14;13.43;;;4.60;;
59310;SDS011;45078;51.654;21.250;2023-03-13T02:35:42;8.98;;;4.93;;
59310;SDS011;45078;51.654;21.250;2023-03-13T02:38:10;10.07;;;4.50;;
59310;SDS011;45078;51.654;21.250;2023-03-13T02:40:41;4.65;;;2.95;;
59310;SDS011;45078;51.654;21.250;2023-03-13T02:43:17;8.15;;;4.22;;
59310;SDS011;45078;51.654;21.250;2023-03-13T02:46:06;10.55;;;4.30;;
59310;SDS011;45078;51.654;21.250;2023-03-13T02:48:39;8.43;;;3.78;;
59310;SDS011;45078;51.654;21.250;2023-03-13T02:51:17;8.48;;;4.15;;
59310;SDS011;45078;51.654;21.250;2023-03-13T02:53:49;10.27;;;4.18;;
59310;SDS011;45078;51.654;21.250;2023-03-13T02:56:17;10.60;;;4.35;;
59310;SDS011;45078;51.654;21.250;2023-03-13T02:58:45;9.50;;;4.25;;
59310;SDS011;45078;51.654;21.250;2023-03-13T03:01:11;14.32;;;4.28;;
59310;SDS011;45078;51.654;21.250;2023-03-13T03:03:37;11.20;;;4.82;;
59310;SDS011;45078;51.654;21.250;2023-03-13T03:06:04;9.73;;;4.68;;
59310;SDS011;45078;51.654;21.250;2023-03-13T03:08:31;10.60;;;4.50;;
59310;SDS011;45078;51.654;21.250;2023-03-13T03:10:57;8.25;;;3.45;;
59310;SDS011;45078;51.654;21.250;2023-03-13T03:13:23;4.75;;;3.15;;
59310;SDS011;45078;51.654;21.250;2023-03-13T03:15:49;12.50;;;4.32;;
59310;SDS011;45078;51.654;21.250;2023-03-13T03:18:15;11.30;;;4.57;;
59310;SDS011;45078;51.654;21.250;2023-03-13T03:20:41;8.45;;;3.20;;
59310;SDS011;45078;51.654;21.250;2023-03-13T03:23:07;7.78;;;3.15;;
59310;SDS011;45078;51.654;21.250;2023-03-13T03:25:33;9.38;;;5.00;;
59310;SDS011;45078;51.654;21.250;2023-03-13T03:27:59;7.18;;;3.95;;
59310;SDS011;45078;51.654;21.250;2023-03-13T03:30:25;10.38;;;4.97;;
59310;SDS011;45078;51.654;21.250;2023-03-13T03:32:50;7.85;;;2.97;;
59310;SDS011;45078;51.654;21.250;2023-03-13T03:35:16;7.00;;;3.33;;
59310;SDS011;45078;51.654;21.250;2023-03-13T03:37:42;10.38;;;4.68;;
59310;SDS011;45078;51.654;21.250;2023-03-13T03:40:08;9.68;;;5.22;;
59310;SDS011;45078;51.654;21.250;2023-03-13T03:42:35;9.30;;;4.75;;
59310;SDS011;45078;51.654;21.250;2023-03-13T03:45:01;8.25;;;4.07;;
59310;SDS011;45078;51.654;21.250;2023-03-13T03:47:27;11.82;;;4.80;;
59310;SDS011;45078;51.654;21.250;2023-03-13T03:52:29;10.57;;;4.80;;
59310;SDS011;45078;51.654;21.250;2023-03-13T03:54:54;8.43;;;4.68;;
59310;SDS011;45078;51.654;21.250;2023-03-13T03:57:20;12.50;;;5.65;;
59310;SDS011;45078;51.654;21.250;2023-03-13T03:59:46;7.38;;;4.03;;
59310;SDS011;45078;51.654;21.250;2023-03-13T04:02:12;8.43;;;4.18;;
59310;SDS011;45078;51.654;21.250;2023-03-13T04:04:37;11.07;;;5.10;;
59310;SDS011;45078;51.654;21.250;2023-03-13T04:07:03;12.45;;;4.68;;
59310;SDS011;45078;51.654;21.250;2023-03-13T04:09:29;8.73;;;4.07;;
59310;SDS011;45078;51.654;21.250;2023-03-13T04:11:55;8.35;;;5.15;;
59310;SDS011;45078;51.654;21.250;2023-03-13T04:14:21;11.45;;;5.25;;
59310;SDS011;45078;51.654;21.250;2023-03-13T04:16:46;4.47;;;3.47;;
59310;SDS011;45078;51.654;21.250;2023-03-13T04:19:12;15.85;;;5.03;;
59310;SDS011;45078;51.654;21.250;2023-03-13T04:21:38;11.02;;;4.63;;
59310;SDS011;45078;51.654;21.250;2023-03-13T04:24:04;10.93;;;4.63;;
59310;SDS011;45078;51.654;21.250;2023-03-13T04:26:30;10.65;;;6.45;;
59310;SDS011;45078;51.654;21.250;2023-03-13T04:28:56;8.18;;;4.22;;
59310;SDS011;45078;51.654;21.250;2023-03-13T04:31:21;8.38;;;4.75;;
59310;SDS011;45078;51.654;21.250;2023-03-13T04:33:47;7.53;;;4.35;;
59310;SDS011;45078;51.654;21.250;2023-03-13T04:36:16;15.05;;;6.68;;
59310;SDS011;45078;51.654;21.250;2023-03-13T04:38:42;10.13;;;5.07;;
59310;SDS011;45078;51.654;21.250;2023-03-13T04:41:08;5.38;;;4.00;;
59310;SDS011;45078;51.654;21.250;2023-03-13T04:43:34;13.65;;;6.55;;
59310;SDS011;45078;51.654;21.250;2023-03-13T04:45:59;12.98;;;6.32;;
59310;SDS011;45078;51.654;21.250;2023-03-13T04:48:25;12.45;;;5.45;;
59310;SDS011;45078;51.654;21.250;2023-03-13T04:50:51;11.98;;;6.28;;
59310;SDS011;45078;51.654;21.250;2023-03-13T04:53:17;13.50;;;6.70;;
59310;SDS011;45078;51.654;21.250;2023-03-13T04:55:43;16.05;;;7.63;;
59310;SDS011;45078;51.654;21.250;2023-03-13T04:58:09;10.57;;;5.05;;
59310;SDS011;45078;51.654;21.250;2023-03-13T05:00:35;14.82;;;6.97;;
59310;SDS011;45078;51.654;21.250;2023-03-13T05:03:01;11.90;;;5.97;;
59310;SDS011;45078;51.654;21.250;2023-03-13T05:05:26;11.18;;;6.53;;
59310;SDS011;45078;51.654;21.250;2023-03-13T05:07:52;11.82;;;4.88;;
59310;SDS011;45078;51.654;21.250;2023-03-13T05:10:18;13.52;;;7.20;;
59310;SDS011;45078;51.654;21.250;2023-03-13T05:12:43;14.48;;;7.43;;
59310;SDS011;45078;51.654;21.250;2023-03-13T05:15:09;13.73;;;7.40;;
59310;SDS011;45078;51.654;21.250;2023-03-13T05:17:35;16.48;;;7.78;;
59310;SDS011;45078;51.654;21.250;2023-03-13T05:20:01;13.57;;;7.53;;
59310;SDS011;45078;51.654;21.250;2023-03-13T05:22:28;15.48;;;6.97;;
59310;SDS011;45078;51.654;21.250;2023-03-13T05:24:54;11.38;;;5.90;;
59310;SDS011;45078;51.654;21.250;2023-03-13T05:27:19;12.55;;;6.78;;
59310;SDS011;45078;51.654;21.250;2023-03-13T05:29:45;19.55;;;9.60;;
59310;SDS011;45078;51.654;21.250;2023-03-13T05:32:11;11.57;;;6.45;;
59310;SDS011;45078;51.654;21.250;2023-03-13T05:34:36;16.60;;;8.32;;
59310;SDS011;45078;51.654;21.250;2023-03-13T05:37:02;15.55;;;8.00;;
59310;SDS011;45078;51.654;21.250;2023-03-13T05:39:28;19.98;;;9.10;;
59310;SDS011;45078;51.654;21.250;2023-03-13T05:41:53;13.82;;;6.85;;
59310;SDS011;45078;51.654;21.250;2023-03-13T05:44:19;21.20;;;8.25;;
59310;SDS011;45078;51.654;21.250;2023-03-13T05:46:45;10.70;;;5.32;;
59310;SDS011;45078;51.654;21.250;2023-03-13T05:49:11;10.00;;;4.20;;
59310;SDS011;45078;51.654;21.250;2023-03-13T05:51:36;15.38;;;6.82;;
59310;SDS011;45078;51.654;21.250;2023-03-13T05:54:02;18.52;;;9.73;;
59310;SDS011;45078;51.654;21.250;2023-03-13T05:56:28;13.13;;;6.65;;
59310;SDS011;45078;51.654;21.250;2023-03-13T05:58:54;16.83;;;6.18;;
59310;SDS011;45078;51.654;21.250;2023-03-13T06:01:19;18.15;;;7.78;;
59310;SDS011;45078;51.654;21.250;2023-03-13T06:03:45;16.35;;;8.13;;
59310;SDS011;45078;51.654;21.250;2023-03-13T06:06:11;13.07;;;7.00;;
59310;SDS011;45078;51.654;21.250;2023-03-13T06:08:37;13.30;;;5.20;;
59310;SDS011;45078;51.654;21.250;2023-03-13T06:11:03;17.40;;;7.70;;
59310;SDS011;45078;51.654;21.250;2023-03-13T06:13:28;13.43;;;5.90;;
59310;SDS011;45078;51.654;21.250;2023-03-13T06:15:55;8.82;;;6.45;;
59310;SDS011;45078;51.654;21.250;2023-03-13T06:18:22;17.02;;;8.80;;
59310;SDS011;45078;51.654;21.250;2023-03-13T06:20:49;17.58;;;8.32;;
59310;SDS011;45078;51.654;21.250;2023-03-13T06:23:19;12.75;;;6.65;;
59310;SDS011;45078;51.654;21.250;2023-03-13T06:25:46;19.80;;;7.72;;
59310;SDS011;45078;51.654;21.250;2023-03-13T06:28:12;15.50;;;7.65;;
59310;SDS011;45078;51.654;21.250;2023-03-13T06:30:38;19.00;;;8.80;;
59310;SDS011;45078;51.654;21.250;2023-03-13T06:33:04;14.50;;;5.82;;
59310;SDS011;45078;51.654;21.250;2023-03-13T06:35:29;17.70;;;9.68;;
59310;SDS011;45078;51.654;21.250;2023-03-13T06:37:55;16.33;;;7.70;;
59310;SDS011;45078;51.654;21.250;2023-03-13T06:40:21;18.83;;;8.00;;
59310;SDS011;45078;51.654;21.250;2023-03-13T06:42:47;22.77;;;8.52;;
59310;SDS011;45078;51.654;21.250;2023-03-13T06:45:12;11.07;;;6.07;;
59310;SDS011;45078;51.654;21.250;2023-03-13T06:47:38;17.85;;;8.25;;
59310;SDS011;45078;51.654;21.250;2023-03-13T06:50:04;13.43;;;6.53;;
59310;SDS011;45078;51.654;21.250;2023-03-13T06:52:30;15.25;;;8.43;;
59310;SDS011;45078;51.654;21.250;2023-03-13T06:54:56;19.08;;;8.90;;
59310;SDS011;45078;51.654;21.250;2023-03-13T06:57:22;9.60;;;5.60;;
59310;SDS011;45078;51.654;21.250;2023-03-13T06:59:47;20.85;;;6.95;;
59310;SDS011;45078;51.654;21.250;2023-03-13T07:02:13;16.00;;;8.43;;
59310;SDS011;45078;51.654;21.250;2023-03-13T07:04:40;8.10;;;4.65;;
59310;SDS011;45078;51.654;21.250;2023-03-13T07:07:06;11.70;;;7.25;;
59310;SDS011;45078;51.654;21.250;2023-03-13T07:09:33;16.10;;;6.80;;
59310;SDS011;45078;51.654;21.250;2023-03-13T07:11:58;12.95;;;6.95;;
59310;SDS011;45078;51.654;21.250;2023-03-13T07:14:24;16.45;;;7.90;;
59310;SDS011;45078;51.654;21.250;2023-03-13T07:16:50;13.63;;;5.93;;
59310;SDS011;45078;51.654;21.250;2023-03-13T07:19:16;11.82;;;6.32;;
59310;SDS011;45078;51.654;21.250;2023-03-13T07:21:42;15.90;;;7.78;;
59310;SDS011;45078;51.654;21.250;2023-03-13T07:24:11;16.13;;;5.85;;
59310;SDS011;45078;51.654;21.250;2023-03-13T07:26:37;20.65;;;8.27;;
59310;SDS011;45078;51.654;21.250;2023-03-13T07:29:03;16.42;;;8.68;;
59310;SDS011;45078;51.654;21.250;2023-03-13T07:31:29;14.40;;;6.75;;
59310;SDS011;45078;51.654;21.250;2023-03-13T07:33:58;10.48;;;6.28;;
59310;SDS011;45078;51.654;21.250;2023-03-13T07:36:24;15.88;;;8.05;;
59310;SDS011;45078;51.654;21.250;2023-03-13T07:38:50;10.57;;;5.63;;
59310;SDS011;45078;51.654;21.250;2023-03-13T07:41:16;13.27;;;6.97;;
59310;SDS011;45078;51.654;21.250;2023-03-13T07:43:43;16.20;;;6.82;;
59310;SDS011;45078;51.654;21.250;2023-03-13T07:46:11;11.23;;;6.88;;
59310;SDS011;45078;51.654;21.250;2023-03-13T07:48:39;15.60;;;8.00;;
59310;SDS011;45078;51.654;21.250;2023-03-13T07:51:07;12.15;;;5.72;;
59310;SDS011;45078;51.654;21.250;2023-03-13T07:53:36;13.93;;;7.30;;
59310;SDS011;45078;51.654;21.250;2023-03-13T07:56:06;9.18;;;5.22;;
59310;SDS011;45078;51.654;21.250;2023-03-13T07:58:35;7.55;;;4.25;;
59310;SDS011;45078;51.654;21.250;2023-03-13T08:01:09;16.40;;;6.70;;
59310;SDS011;45078;51.654;21.250;2023-03-13T08:03:38;16.00;;;5.68;;
59310;SDS011;45078;51.654;21.250;2023-03-13T08:06:05;10.57;;;5.90;;
59310;SDS011;45078;51.654;21.250;2023-03-13T08:08:33;13.85;;;7.18;;
59310;SDS011;45078;51.654;21.250;2023-03-13T08:11:00;14.73;;;6.10;;
59310;SDS011;45078;51.654;21.250;2023-03-13T08:13:30;13.32;;;6.03;;
59310;SDS011;45078;51.654;21.250;2023-03-13T08:16:13;11.95;;;6.00;;
59310;SDS011;45078;51.654;21.250;2023-03-13T08:18:42;8.85;;;4.57;;
59310;SDS011;45078;51.654;21.250;2023-03-13T08:21:10;13.50;;;6.10;;
59310;SDS011;45078;51.654;21.250;2023-03-13T08:23:38;11.98;;;5.60;;
59310;SDS011;45078;51.654;21.250;2023-03-13T08:26:06;11.38;;;5.25;;
59310;SDS011;45078;51.654;21.250;2023-03-13T08:28:32;9.60;;;4.90;;
59310;SDS011;45078;51.654;21.250;2023-03-13T08:31:05;11.45;;;5.35;;
59310;SDS011;45078;51.654;21.250;2023-03-13T08:33:38;12.75;;;5.68;;
59310;SDS011;45078;51.654;21.250;2023-03-13T08:36:18;9.15;;;4.75;;
59310;SDS011;45078;51.654;21.250;2023-03-13T08:38:47;8.07;;;4.50;;
59310;SDS011;45078;51.654;21.250;2023-03-13T08:41:15;9.60;;;4.85;;
59310;SDS011;45078;51.654;21.250;2023-03-13T08:43:42;11.85;;;4.75;;
59310;SDS011;45078;51.654;21.250;2023-03-13T08:46:08;8.35;;;3.78;;
59310;SDS011;45078;51.654;21.250;2023-03-13T08:48:34;8.38;;;4.55;;
59310;SDS011;45078;51.654;21.250;2023-03-13T08:51:04;8.25;;;3.83;;
59310;SDS011;45078;51.654;21.250;2023-03-13T08:53:32;6.50;;;3.80;;
59310;SDS011;45078;51.654;21.250;2023-03-13T08:55:58;7.95;;;4.25;;
59310;SDS011;45078;51.654;21.250;2023-03-13T08:58:25;7.00;;;3.00;;
59310;SDS011;45078;51.654;21.250;2023-03-13T09:00:51;7.30;;;3.63;;
59310;SDS011;45078;51.654;21.250;2023-03-13T09:03:18;13.07;;;3.90;;
59310;SDS011;45078;51.654;21.250;2023-03-13T09:05:44;6.95;;;3.85;;
59310;SDS011;45078;51.654;21.250;2023-03-13T09:08:13;6.07;;;3.15;;
59310;SDS011;45078;51.654;21.250;2023-03-13T09:10:39;7.75;;;3.58;;
59310;SDS011;45078;51.654;21.250;2023-03-13T09:13:05;5.43;;;3.38;;
59310;SDS011;45078;51.654;21.250;2023-03-13T09:15:31;7.28;;;3.78;;
59310;SDS011;45078;51.654;21.250;2023-03-13T09:17:56;6.70;;;3.95;;
59310;SDS011;45078;51.654;21.250;2023-03-13T09:20:22;4.78;;;2.80;;
59310;SDS011;45078;51.654;21.250;2023-03-13T09:22:48;7.80;;;3.40;;
59310;SDS011;45078;51.654;21.250;2023-03-13T09:25:14;9.05;;;3.92;;
59310;SDS011;45078;51.654;21.250;2023-03-13T09:27:40;7.13;;;3.78;;
59310;SDS011;45078;51.654;21.250;2023-03-13T09:30:06;5.45;;;3.25;;
59310;SDS011;45078;51.654;21.250;2023-03-13T09:32:32;15.90;;;4.22;;
59310;SDS011;45078;51.654;21.250;2023-03-13T09:34:58;7.45;;;4.60;;
59310;SDS011;45078;51.654;21.250;2023-03-13T09:37:24;8.60;;;4.05;;
59310;SDS011;45078;51.654;21.250;2023-03-13T09:39:50;5.60;;;3.15;;
59310;SDS011;45078;51.654;21.250;2023-03-13T09:42:24;9.10;;;4.43;;
59310;SDS011;45078;51.654;21.250;2023-03-13T09:45:11;6.82;;;3.35;;
59310;SDS011;45078;51.654;21.250;2023-03-13T09:51:01;9.43;;;3.30;;
59310;SDS011;45078;51.654;21.250;2023-03-13T09:53:50;10.80;;;3.53;;
59310;SDS011;45078;51.654;21.250;2023-03-13T09:56:24;11.07;;;4.78;;
59310;SDS011;45078;51.654;21.250;2023-03-13T09:59:08;7.47;;;3.08;;
59310;SDS011;45078;51.654;21.250;2023-03-13T10:01:44;6.85;;;3.08;;
59310;SDS011;45078;51.654;21.250;2023-03-13T10:04:35;12.00;;;4.32;;
59310;SDS011;45078;51.654;21.250;2023-03-13T10:06:59;7.47;;;4.15;;
59310;SDS011;45078;51.654;21.250;2023-03-13T10:09:30;10.20;;;4.45;;
59310;SDS011;45078;51.654;21.250;2023-03-13T10:14:44;11.32;;;4.53;;
59310;SDS011;45078;51.654;21.250;2023-03-13T10:17:31;6.60;;;3.40;;
59310;SDS011;45078;51.654;21.250;2023-03-13T10:20:16;9.68;;;4.10;;
59310;SDS011;45078;51.654;21.250;2023-03-13T10:22:50;8.85;;;4.15;;
59310;SDS011;45078;51.654;21.250;2023-03-13T10:25:37;10.57;;;4.65;;
59310;SDS011;45078;51.654;21.250;2023-03-13T10:28:03;6.82;;;4.28;;
59310;SDS011;45078;51.654;21.250;2023-03-13T10:30:30;13.70;;;4.50;;
59310;SDS011;45078;51.654;21.250;2023-03-13T10:33:00;8.02;;;3.80;;
59310;SDS011;45078;51.654;21.250;2023-03-13T10:35:36;10.63;;;5.60;;
59310;SDS011;45078;51.654;21.250;2023-03-13T10:38:05;8.63;;;3.50;;
59310;SDS011;45078;51.654;21.250;2023-03-13T10:40:38;9.88;;;3.95;;
59310;SDS011;45078;51.654;21.250;2023-03-13T10:43:12;11.20;;;4.53;;
59310;SDS011;45078;51.654;21.250;2023-03-13T10:45:42;7.00;;;3.58;;
59310;SDS011;45078;51.654;21.250;2023-03-13T10:48:12;12.40;;;4.18;;
59310;SDS011;45078;51.654;21.250;2023-03-13T10:50:50;14.18;;;4.35;;
59310;SDS011;45078;51.654;21.250;2023-03-13T10:58:43;11.50;;;3.67;;
59310;SDS011;45078;51.654;21.250;2023-03-13T11:01:21;5.82;;;2.72;;
59310;SDS011;45078;51.654;21.250;2023-03-13T11:03:50;6.07;;;3.03;;
59310;SDS011;45078;51.654;21.250;2023-03-13T11:06:30;12.07;;;3.38;;
59310;SDS011;45078;51.654;21.250;2023-03-13T11:14:12;7.00;;;3.30;;
59310;SDS011;45078;51.654;21.250;2023-03-13T11:16:47;11.10;;;3.75;;
59310;SDS011;45078;51.654;21.250;2023-03-13T11:27:26;5.57;;;2.33;;
59310;SDS011;45078;51.654;21.250;2023-03-13T11:38:18;9.68;;;3.15;;
59310;SDS011;45078;51.654;21.250;2023-03-13T11:43:35;5.28;;;1.95;;
59310;SDS011;45078;51.654;21.250;2023-03-13T11:51:49;7.53;;;2.67;;
59310;SDS011;45078;51.654;21.250;2023-03-13T11:56:56;6.93;;;2.38;;
59310;SDS011;45078;51.654;21.250;2023-03-13T12:05:09;4.72;;;2.25;;
59310;SDS011;45078;51.654;21.250;2023-03-13T12:07:38;10.18;;;2.35;;
59310;SDS011;45078;51.654;21.250;2023-03-13T12:10:11;6.53;;;2.00;;
59310;SDS011;45078;51.654;21.250;2023-03-13T12:15:45;9.73;;;2.53;;
59310;SDS011;45078;51.654;21.250;2023-03-13T12:18:16;6.20;;;3.10;;
59310;SDS011;45078;51.654;21.250;2023-03-13T12:20:57;9.60;;;3.55;;
59310;SDS011;45078;51.654;21.250;2023-03-13T12:31:16;4.90;;;2.17;;
59310;SDS011;45078;51.654;21.250;2023-03-13T12:39:21;11.30;;;3.50;;
59310;SDS011;45078;51.654;21.250;2023-03-13T12:44:47;5.80;;;2.47;;
59310;SDS011;45078;51.654;21.250;2023-03-13T12:47:15;6.70;;;2.75;;
59310;SDS011;45078;51.654;21.250;2023-03-13T12:50:06;7.28;;;2.97;;
59310;SDS011;45078;51.654;21.250;2023-03-13T13:04:06;8.65;;;3.03;;
59310;SDS011;45078;51.654;21.250;2023-03-13T13:09:25;11.85;;;3.28;;
59310;SDS011;45078;51.654;21.250;2023-03-13T13:27:52;4.03;;;1.77;;
59310;SDS011;45078;51.654;21.250;2023-03-13T13:32:44;7.93;;;2.28;;
59310;SDS011;45078;51.654;21.250;2023-03-13T13:35:19;10.10;;;2.33;;
59310;SDS011;45078;51.654;21.250;2023-03-13T13:43:47;5.07;;;2.15;;
59310;SDS011;45078;51.654;21.250;2023-03-13T13:51:34;4.57;;;2.22;;
59310;SDS011;45078;51.654;21.250;2023-03-13T13:57:20;8.35;;;1.88;;
59310;SDS011;45078;51.654;21.250;2023-03-13T14:00:32;8.15;;;2.33;;
59310;SDS011;45078;51.654;21.250;2023-03-13T14:02:51;9.95;;;2.45;;
59310;SDS011;45078;51.654;21.250;2023-03-13T14:05:21;9.27;;;2.70;;
59310;SDS011;45078;51.654;21.250;2023-03-13T14:08:02;10.75;;;2.40;;
59310;SDS011;45078;51.654;21.250;2023-03-13T14:13:29;6.20;;;1.83;;
59310;SDS011;45078;51.654;21.250;2023-03-13T14:15:55;7.10;;;2.67;;
59310;SDS011;45078;51.654;21.250;2023-03-13T14:18:22;3.15;;;1.98;;
59310;SDS011;45078;51.654;21.250;2023-03-13T14:28:58;5.05;;;2.17;;
59310;SDS011;45078;51.654;21.250;2023-03-13T14:31:29;5.65;;;2.08;;
59310;SDS011;45078;51.654;21.250;2023-03-13T14:33:59;13.80;;;2.45;;
59310;SDS011;45078;51.654;21.250;2023-03-13T14:36:27;8.70;;;2.78;;
59310;SDS011;45078;51.654;21.250;2023-03-13T14:38:54;9.32;;;3.17;;
59310;SDS011;45078;51.654;21.250;2023-03-13T14:41:40;4.40;;;2.35;;
59310;SDS011;45078;51.654;21.250;2023-03-13T14:46:46;9.90;;;3.38;;
59310;SDS011;45078;51.654;21.250;2023-03-13T14:49:17;6.82;;;3.30;;
59310;SDS011;45078;51.654;21.250;2023-03-13T14:51:45;9.02;;;1.80;;
59310;SDS011;45078;51.654;21.250;2023-03-13T14:54:30;11.88;;;2.83;;
59310;SDS011;45078;51.654;21.250;2023-03-13T14:57:01;10.48;;;2.97;;
59310;SDS011;45078;51.654;21.250;2023-03-13T14:59:29;4.50;;;2.80;;
59310;SDS011;45078;51.654;21.250;2023-03-13T15:01:59;6.53;;;2.40;;
59310;SDS011;45078;51.654;21.250;2023-03-13T15:07:36;5.10;;;1.92;;
59310;SDS011;45078;51.654;21.250;2023-03-13T15:10:30;2.88;;;1.88;;
59310;SDS011;45078;51.654;21.250;2023-03-13T15:12:56;3.38;;;1.55;;
59310;SDS011;45078;51.654;21.250;2023-03-13T15:15:22;8.15;;;2.17;;
59310;SDS011;45078;51.654;21.250;2023-03-13T15:17:48;4.68;;;1.80;;
59310;SDS011;45078;51.654;21.250;2023-03-13T15:20:14;7.53;;;2.45;;
59310;SDS011;45078;51.654;21.250;2023-03-13T15:22:42;3.05;;;1.67;;
59310;SDS011;45078;51.654;21.250;2023-03-13T15:25:17;5.15;;;2.22;;
59310;SDS011;45078;51.654;21.250;2023-03-13T15:27:45;4.35;;;1.55;;
59310;SDS011;45078;51.654;21.250;2023-03-13T15:30:19;9.95;;;2.60;;
59310;SDS011;45078;51.654;21.250;2023-03-13T15:32:47;5.55;;;2.15;;
59310;SDS011;45078;51.654;21.250;2023-03-13T15:35:27;8.95;;;2.40;;
59310;SDS011;45078;51.654;21.250;2023-03-13T15:37:55;6.00;;;1.77;;
59310;SDS011;45078;51.654;21.250;2023-03-13T15:40:22;6.57;;;2.50;;
59310;SDS011;45078;51.654;21.250;2023-03-13T15:42:48;7.05;;;2.50;;
59310;SDS011;45078;51.654;21.250;2023-03-13T15:45:15;8.05;;;2.65;;
59310;SDS011;45078;51.654;21.250;2023-03-13T15:47:41;10.73;;;2.70;;
59310;SDS011;45078;51.654;21.250;2023-03-13T15:50:13;6.35;;;2.20;;
59310;SDS011;45078;51.654;21.250;2023-03-13T15:52:40;4.93;;;2.70;;
59310;SDS011;45078;51.654;21.250;2023-03-13T15:55:06;10.25;;;3.05;;
59310;SDS011;45078;51.654;21.250;2023-03-13T15:57:35;6.80;;;2.50;;
59310;SDS011;45078;51.654;21.250;2023-03-13T16:00:06;12.80;;;3.13;;
59310;SDS011;45078;51.654;21.250;2023-03-13T16:02:40;10.18;;;2.45;;
59310;SDS011;45078;51.654;21.250;2023-03-13T16:05:06;5.50;;;2.22;;
59310;SDS011;45078;51.654;21.250;2023-03-13T16:07:33;6.25;;;2.42;;
59310;SDS011;45078;51.654;21.250;2023-03-13T16:09:59;4.85;;;1.92;;
59310;SDS011;45078;51.654;21.250;2023-03-13T16:12:24;9.52;;;2.83;;
59310;SDS011;45078;51.654;21.250;2023-03-13T16:14:50;7.85;;;3.03;;
59310;SDS011;45078;51.654;21.250;2023-03-13T16:17:16;5.65;;;2.60;;
59310;SDS011;45078;51.654;21.250;2023-03-13T16:19:44;10.93;;;2.58;;
59310;SDS011;45078;51.654;21.250;2023-03-13T16:22:10;6.38;;;2.55;;
59310;SDS011;45078;51.654;21.250;2023-03-13T16:24:39;9.48;;;3.38;;
59310;SDS011;45078;51.654;21.250;2023-03-13T16:27:10;6.80;;;2.55;;
59310;SDS011;45078;51.654;21.250;2023-03-13T16:29:38;7.83;;;3.10;;
59310;SDS011;45078;51.654;21.250;2023-03-13T16:32:04;8.75;;;2.30;;
59310;SDS011;45078;51.654;21.250;2023-03-13T16:34:30;8.07;;;3.28;;
59310;SDS011;45078;51.654;21.250;2023-03-13T16:36:55;5.57;;;2.58;;
59310;SDS011;45078;51.654;21.250;2023-03-13T16:39:21;8.77;;;2.92;;
59310;SDS011;45078;51.654;21.250;2023-03-13T16:41:47;5.45;;;2.35;;
59310;SDS011;45078;51.654;21.250;2023-03-13T16:44:13;8.05;;;3.03;;
59310;SDS011;45078;51.654;21.250;2023-03-13T16:46:40;9.50;;;2.95;;
59310;SDS011;45078;51.654;21.250;2023-03-13T16:49:14;7.68;;;2.40;;
59310;SDS011;45078;51.654;21.250;2023-03-13T16:51:40;5.75;;;2.45;;
59310;SDS011;45078;51.654;21.250;2023-03-13T16:54:06;10.52;;;3.30;;
59310;SDS011;45078;51.654;21.250;2023-03-13T16:56:33;6.25;;;2.78;;
59310;SDS011;45078;51.654;21.250;2023-03-13T16:59:06;5.22;;;2.47;;